Time;durP1;ratioP1;P1;durP2;ratioP2;P2;SDS_P1;SDS_P2;PMS_P1;PMS_P2;Temp;Humidity;BMP_temperature;BMP_pressure;BME280_temperature;BME280_humidity;BME280_pressure;Samples;Min_cycle;Max_cycle;Signal;HPM_P1;HPM_P2
2022/12/21 00:00:20;;;;;;;;;;;;;;;7.43;100.00;101103.31;5025056;28;19931;-76
2022/12/21 00:02:45;;;;;;;;;;;;;;;7.40;100.00;101100.78;5024028;28;19917;-76
2022/12/21 00:05:11;;;;;;;;;;;;;;;7.38;100.00;101094.75;5030408;28;19957;-76
2022/12/21 00:07:36;;;;;;;;;;;;;;;7.36;100.00;101100.00;5020385;28;20228;-76
2022/12/21 00:10:02;;;;;;;;;;;;;;;7.35;100.00;101094.81;5037559;28;20208;-76
2022/12/21 00:12:27;;;;;;;;;;;;;;;7.33;100.00;101094.00;5025878;28;20016;-76
2022/12/21 00:14:53;;;;;;;;;;;;;;;7.31;100.00;101088.81;5036443;28;19966;-76
2022/12/21 00:17:18;;;;;;;;;;;;;;;7.28;100.00;101086.31;5037166;28;19932;-76
2022/12/21 00:19:43;;;;;;;;;;;;;;;7.27;100.00;101087.19;5021399;28;19947;-76
2022/12/21 00:22:09;;;;;;;;;;;;;;;7.23;100.00;101081.19;5035766;28;19921;-76
2022/12/21 00:24:34;;;;;;;;;;;;;;;7.20;100.00;101083.00;5022102;28;19921;-76
2022/12/21 00:27:00;;;;;;;;;;;;;;;7.17;100.00;101083.94;5034315;28;19956;-76
2022/12/21 00:29:26;;;;;;;;;;;;;;;7.15;100.00;101082.25;5030495;28;20323;-76
2022/12/21 00:31:51;;;;;;;;;;;;;;;7.11;100.00;101084.06;5024318;28;20164;-76
2022/12/21 00:34:21;;;;;;;;;;;;;;;7.09;100.00;101080.63;5028383;28;19921;-76
2022/12/21 00:36:46;;;;;;;;;;;;;;;7.05;100.00;101064.22;5028710;28;19917;-76
2022/12/21 00:39:12;;;;;;;;;;;;;;;7.02;100.00;101063.44;5026362;28;20188;-76
2022/12/21 00:41:37;;;;;;;;;;;;;;;6.99;100.00;101066.97;5037313;28;19917;-76
2022/12/21 00:44:03;;;;;;;;;;;;;;;6.98;100.00;101067.00;5031400;28;20243;-76
2022/12/21 00:46:30;;;;;;;;;;;;;;;6.97;100.00;101071.38;5018646;28;20120;-76
2022/12/21 00:48:56;;;;;;;;;;;;;;;6.95;100.00;101067.06;5021254;28;19940;-76
2022/12/21 00:51:22;;;;;;;;;;;;;;;6.93;100.00;101069.72;5036858;28;19921;-76
2022/12/21 00:53:47;;;;;;;;;;;;;;;6.90;100.00;101062.81;5035848;28;19955;-76
2022/12/21 00:56:12;;;;;;;;;;;;;;;6.87;100.00;101062.88;5017788;28;19956;-76
2022/12/21 00:58:38;;;;;;;;;;;;;;;6.84;100.00;101062.09;5017103;28;19917;-76
2022/12/21 01:01:05;;;;;;;;;;;;;;;6.81;100.00;101057.81;5035886;28;19919;-76
2022/12/21 01:03:30;;;;;;;;;;;;;;;6.79;100.00;101074.38;5036973;28;19917;-76
2022/12/21 01:05:56;;;;;;;;;;;;;;;6.76;100.00;101067.47;5035110;28;19924;-76
2022/12/21 01:08:25;;;;;;;;;;;;;;;6.73;100.00;101062.31;5036422;28;19924;-76
2022/12/21 01:10:56;;;;;;;;;;;;;;;6.70;100.00;101063.25;5023076;28;19921;-76
2022/12/21 01:13:21;;;;;;;;;;;;;;;6.69;100.00;101069.34;5017053;28;20025;-76
2022/12/21 01:15:46;;;;;;;;;;;;;;;6.65;100.00;101065.09;5028561;28;19929;-76
2022/12/21 01:18:13;;;;;;;;;;;;;;;6.64;100.00;101068.59;5036788;28;19925;-76
2022/12/21 01:20:44;;;;;;;;;;;;;;;6.61;100.00;101067.81;5035168;28;19916;-76
2022/12/21 01:23:09;;;;;;;;;;;;;;;6.59;100.00;101073.03;5036650;28;19980;-76
2022/12/21 01:25:34;;;;;;;;;;;;;;;6.58;100.00;101070.44;5035653;28;19917;-76
2022/12/21 01:28:00;;;;;;;;;;;;;;;6.56;100.00;101082.66;5039585;28;19925;-76
2022/12/21 01:30:25;;;;;;;;;;;;;;;6.53;100.00;101084.41;5045700;28;19952;-76
2022/12/21 01:32:50;;;;;;;;;;;;;;;6.51;100.00;101081.00;5038532;28;19932;-76
2022/12/21 01:35:15;;;;;;;;;;;;;;;6.49;100.00;101084.50;5038916;28;19929;-76
2022/12/21 01:37:41;;;;;;;;;;;;;;;6.47;100.00;101084.53;5040358;28;19992;-76
2022/12/21 01:40:06;;;;;;;;;;;;;;;6.47;100.00;101091.47;5034347;28;19980;-76
2022/12/21 01:42:32;;;;;;;;;;;;;;;6.45;100.00;101094.09;5039056;28;19917;-76
2022/12/21 01:44:57;;;;;;;;;;;;;;;6.42;100.00;101094.19;5039644;28;20121;-76
2022/12/21 01:47:25;;;;;;;;;;;;;;;6.40;100.00;101090.72;5022784;28;19921;-76
2022/12/21 01:49:54;;;;;;;;;;;;;;;6.40;100.00;101095.94;5029192;28;20220;-76
2022/12/21 01:52:20;;;;;;;;;;;;;;;6.38;100.00;101097.72;5037179;28;19924;-76
2022/12/21 01:54:49;;;;;;;;;;;;;;;6.37;100.00;101095.13;5027420;28;20020;-76
2022/12/21 01:57:15;;;;;;;;;;;;;;;6.34;100.00;101090.88;5032756;28;19996;-76
2022/12/21 01:59:52;;;;;;;;;;;;;;;6.32;100.00;101090.03;5048192;28;19924;-76
2022/12/21 02:02:19;;;;;;;;;;;;;;;6.30;100.00;101095.25;5032260;28;19925;-76
2022/12/21 02:04:45;;;;;;;;;;;;;;;6.30;100.00;101089.22;5039456;28;19992;-76
2022/12/21 02:07:11;;;;;;;;;;;;;;;6.29;100.00;101085.78;5029979;28;19984;-76
2022/12/21 02:09:36;;;;;;;;;;;;;;;6.27;100.00;101079.72;5020208;28;19917;-76
2022/12/21 02:12:03;;;;;;;;;;;;;;;6.27;100.00;101071.91;5027993;28;19925;-76
2022/12/21 02:14:31;;;;;;;;;;;;;;;6.26;100.00;101085.81;5038745;28;19980;-76
2022/12/21 02:16:56;;;;;;;;;;;;;;;6.24;100.00;101077.19;5034735;28;20124;-76
2022/12/21 02:19:38;;;;;;;;;;;;;;;6.24;100.00;101084.09;5020078;28;19945;-76
2022/12/21 02:22:04;;;;;;;;;;;;;;;6.23;100.00;101085.00;5025319;28;20111;-76
2022/12/21 02:24:52;;;;;;;;;;;;;;;6.22;100.00;101083.28;5039471;28;19909;-76
2022/12/21 02:27:23;;;;;;;;;;;;;;;6.20;100.00;101079.84;5032995;28;20245;-76
2022/12/21 02:30:04;;;;;;;;;;;;;;;6.18;100.00;101072.09;5030100;28;20117;-76
2022/12/21 02:32:47;;;;;;;;;;;;;;;6.18;100.00;101071.22;5021037;28;19946;-76
2022/12/21 02:35:31;;;;;;;;;;;;;;;6.17;100.00;101072.09;5020849;28;19932;-76
2022/12/21 02:38:15;;;;;;;;;;;;;;;6.14;100.00;101073.03;5026442;28;20012;-76
2022/12/21 02:40:59;;;;;;;;;;;;;;;6.12;100.00;101080.00;5019837;28;20216;-76
2022/12/21 02:46:25;;;;;;;;;;;;;;;6.07;100.00;101077.47;5038813;28;19920;-76
2022/12/21 02:48:57;;;;;;;;;;;;;;;6.08;100.00;101079.22;5026994;28;19959;-76
2022/12/21 02:51:27;;;;;;;;;;;;;;;6.07;100.00;101071.44;5019691;28;20205;-76
2022/12/21 02:53:53;;;;;;;;;;;;;;;6.07;100.00;101071.44;5030614;28;20261;-76
2022/12/21 02:56:19;;;;;;;;;;;;;;;6.06;100.00;101072.34;5038952;28;19925;-76
2022/12/21 02:58:44;;;;;;;;;;;;;;;6.06;100.00;101080.13;5031217;28;19972;-76
2022/12/21 03:01:21;;;;;;;;;;;;;;;6.05;100.00;101075.81;5038984;28;19959;-76
2022/12/21 03:03:58;;;;;;;;;;;;;;;6.05;100.00;101068.00;5030081;28;19922;-76
2022/12/21 03:06:26;;;;;;;;;;;;;;;6.04;100.00;101066.28;5019281;28;19928;-76
2022/12/21 03:09:04;;;;;;;;;;;;;;;6.02;100.00;101071.53;5025416;28;19921;-76
2022/12/21 03:11:41;;;;;;;;;;;;;;;6.01;100.00;101067.19;5030757;28;20095;-76
2022/12/21 03:14:15;;;;;;;;;;;;;;;6.00;100.00;101067.22;5031939;28;19925;-76
2022/12/21 03:16:49;;;;;;;;;;;;;;;5.99;100.00;101066.38;5019282;28;20212;-76
2022/12/21 03:19:21;;;;;;;;;;;;;;;5.99;100.00;101058.56;5020099;28;20154;-76
2022/12/21 03:21:49;;;;;;;;;;;;;;;5.98;100.00;101049.06;5019233;28;20097;-76
2022/12/21 03:24:17;;;;;;;;;;;;;;;5.97;100.00;101055.16;5020530;28;19980;-76
2022/12/21 03:26:50;;;;;;;;;;;;;;;5.96;100.00;101054.28;5028433;28;19975;-76
2022/12/21 03:29:18;;;;;;;;;;;;;;;5.95;100.00;101051.69;5037415;28;19956;-76
2022/12/21 03:31:47;;;;;;;;;;;;;;;5.95;100.00;101051.69;5018516;28;19917;-76
2022/12/21 03:34:32;;;;;;;;;;;;;;;5.94;100.00;101049.97;5022932;28;19996;-76
2022/12/21 03:37:02;;;;;;;;;;;;;;;5.93;100.00;101040.44;5038237;28;19925;-76
2022/12/21 03:39:29;;;;;;;;;;;;;;;5.91;100.00;101056.09;5025949;28;19933;-76
2022/12/21 03:42:05;;;;;;;;;;;;;;;5.90;100.00;101059.56;5024536;28;19943;-76
2022/12/21 03:44:36;;;;;;;;;;;;;;;5.89;100.00;101057.84;5025355;28;20170;-76
2022/12/21 03:47:05;;;;;;;;;;;;;;;5.89;100.00;101041.38;5036418;28;19940;-76
2022/12/21 03:49:35;;;;;;;;;;;;;;;5.88;100.00;101043.13;5027013;28;19935;-76
2022/12/21 03:52:08;;;;;;;;;;;;;;;5.87;100.00;101028.41;5019201;28;19913;-76
2022/12/21 03:54:45;;;;;;;;;;;;;;;5.86;100.00;101042.31;5029522;28;20227;-76
2022/12/21 03:57:11;;;;;;;;;;;;;;;5.86;100.00;101051.84;5036771;28;19959;-76
2022/12/21 03:59:39;;;;;;;;;;;;;;;5.84;100.00;101049.28;5035659;28;19920;-76
2022/12/21 04:02:08;;;;;;;;;;;;;;;5.84;100.00;101057.09;5036830;28;19991;-75
2022/12/21 04:04:52;;;;;;;;;;;;;;;5.83;100.00;101052.75;5027483;28;19928;-75
2022/12/21 04:07:23;;;;;;;;;;;;;;;5.82;100.00;101056.25;5018415;28;19937;-75
2022/12/21 04:09:54;;;;;;;;;;;;;;;5.80;100.00;101042.41;5027086;28;19913;-75
2022/12/21 04:12:37;;;;;;;;;;;;;;;5.79;100.00;101034.66;5037709;28;19920;-75
2022/12/21 04:15:08;;;;;;;;;;;;;;;5.77;100.00;101029.47;5028481;28;20027;-75
2022/12/21 04:17:34;;;;;;;;;;;;;;;5.76;100.00;101022.56;5037193;28;19917;-74
2022/12/21 04:19:59;;;;;;;;;;;;;;;5.76;100.00;101027.75;5029358;28;19921;-72
2022/12/21 04:28:09;;;;;;;;;;;;;;;5.73;100.00;101023.47;5036641;28;20173;-75
2022/12/21 04:30:38;;;;;;;;;;;;;;;5.72;100.00;101031.28;5028567;28;19925;-75
2022/12/21 04:33:03;;;;;;;;;;;;;;;5.73;100.00;101040.78;5016568;28;19929;-75
2022/12/21 04:35:28;;;;;;;;;;;;;;;5.72;100.00;101045.13;5026076;28;19925;-75
2022/12/21 04:37:54;;;;;;;;;;;;;;;5.71;100.00;101040.84;5037177;28;19913;-75
2022/12/21 04:40:20;;;;;;;;;;;;;;;5.72;100.00;101041.69;5027358;28;19921;-75
2022/12/21 04:42:45;;;;;;;;;;;;;;;5.71;100.00;101043.44;5037150;28;19916;-75
2022/12/21 04:45:10;;;;;;;;;;;;;;;5.70;100.00;101028.72;5033592;28;19917;-75
2022/12/21 04:47:36;;;;;;;;;;;;;;;5.71;100.00;101040.84;5017481;28;19913;-75
2022/12/21 04:50:01;;;;;;;;;;;;;;;5.70;100.00;101041.72;5019574;28;20310;-75
2022/12/21 04:52:27;;;;;;;;;;;;;;;5.71;100.00;101037.38;5036783;28;19916;-75
2022/12/21 04:54:52;;;;;;;;;;;;;;;5.71;100.00;101042.56;5036257;28;20228;-75
2022/12/21 04:57:17;;;;;;;;;;;;;;;5.70;100.00;101036.53;5017312;28;19917;-75
2022/12/21 04:59:44;;;;;;;;;;;;;;;5.70;100.00;101033.06;5025705;28;19983;-75
2022/12/21 05:02:10;;;;;;;;;;;;;;;5.70;100.00;101040.88;5020885;28;20191;-75
2022/12/21 05:04:35;;;;;;;;;;;;;;;5.71;100.00;101038.25;5016900;28;19933;-75
2022/12/21 05:07:00;;;;;;;;;;;;;;;5.71;100.00;101021.78;5017389;28;19932;-75
2022/12/21 05:09:25;;;;;;;;;;;;;;;5.72;100.00;101037.34;5023548;28;19918;-75
2022/12/21 05:11:54;;;;;;;;;;;;;;;5.72;100.00;101023.50;5026663;28;20212;-75
2022/12/21 05:14:20;;;;;;;;;;;;;;;5.72;100.00;101028.69;5018135;28;19956;-75
2022/12/21 05:16:45;;;;;;;;;;;;;;;5.73;100.00;101030.41;5024699;28;19933;-75
2022/12/21 05:19:10;;;;;;;;;;;;;;;5.72;100.00;101021.75;5036382;28;20165;-75
2022/12/21 05:21:36;;;;;;;;;;;;;;;5.73;100.00;101025.19;5031488;28;19964;-75
2022/12/21 05:24:01;;;;;;;;;;;;;;;5.73;100.00;101025.19;5017509;28;19921;-75
2022/12/21 05:26:26;;;;;;;;;;;;;;;5.74;100.00;101027.78;5026686;28;19932;-75
2022/12/21 05:28:51;;;;;;;;;;;;;;;5.74;100.00;101032.97;5018944;28;20177;-75
2022/12/21 05:31:17;;;;;;;;;;;;;;;5.74;100.00;101026.94;5032783;28;20153;-75
2022/12/21 05:33:42;;;;;;;;;;;;;;;5.74;100.00;101034.72;5015526;28;20006;-75
2022/12/21 05:36:09;;;;;;;;;;;;;;;5.75;100.00;101037.31;5032683;28;19939;-75
2022/12/21 05:38:34;;;;;;;;;;;;;;;5.75;100.00;101028.66;5035179;28;19925;-75
2022/12/21 05:40:59;;;;;;;;;;;;;;;5.76;100.00;101032.94;5021766;28;19928;-75
2022/12/21 05:43:25;;;;;;;;;;;;;;;5.76;100.00;101031.19;5031892;28;19952;-75
2022/12/21 05:45:50;;;;;;;;;;;;;;;5.77;100.00;101029.47;5034565;28;19921;-75
2022/12/21 05:48:16;;;;;;;;;;;;;;;5.77;100.00;101029.47;5031211;28;20186;-75
2022/12/21 05:50:41;;;;;;;;;;;;;;;5.76;100.00;101018.19;5036026;28;19921;-75
2022/12/21 05:53:07;;;;;;;;;;;;;;;5.79;100.00;101021.66;5027090;28;20009;-75
2022/12/21 05:55:32;;;;;;;;;;;;;;;5.79;100.00;101013.88;5016651;28;19993;-75
2022/12/21 05:57:58;;;;;;;;;;;;;;;5.80;100.00;101010.38;5024681;28;19932;-75
2022/12/21 06:00:23;;;;;;;;;;;;;;;5.80;100.00;101015.56;5030170;28;20004;-75
2022/12/21 06:02:48;;;;;;;;;;;;;;;5.80;100.00;101011.22;5021635;28;19917;-73
2022/12/21 06:05:14;;;;;;;;;;;;;;;5.80;100.00;101006.00;5030971;28;19926;-75
2022/12/21 06:07:39;;;;;;;;;;;;;;;5.80;100.00;101006.00;5029143;28;20012;-75
2022/12/21 06:10:04;;;;;;;;;;;;;;;5.81;100.00;101007.75;5023880;28;19913;-75
2022/12/21 06:12:30;;;;;;;;;;;;;;;5.82;100.00;101017.28;5035075;28;20248;-75
2022/12/21 06:14:56;;;;;;;;;;;;;;;5.83;100.00;101010.31;5020323;28;19929;-75
2022/12/21 06:17:21;;;;;;;;;;;;;;;5.82;100.00;101014.66;5020300;28;19941;-75
2022/12/21 06:19:46;;;;;;;;;;;;;;;5.83;100.00;101007.72;5035728;28;19921;-75
2022/12/21 06:22:11;;;;;;;;;;;;;;;5.83;100.00;101007.72;5035961;28;19921;-75
2022/12/21 06:24:36;;;;;;;;;;;;;;;5.83;100.00;101008.56;5039047;28;19925;-75
2022/12/21 06:27:02;;;;;;;;;;;;;;;5.84;100.00;101002.50;5040031;28;20236;-73
2022/12/21 06:29:27;;;;;;;;;;;;;;;5.85;100.00;101004.19;5032871;28;20031;-75
2022/12/21 06:31:52;;;;;;;;;;;;;;;5.84;100.00;101002.50;5034835;28;19929;-75
2022/12/21 06:34:18;;;;;;;;;;;;;;;5.84;100.00;100999.91;5035938;28;19917;-75
2022/12/21 06:36:43;;;;;;;;;;;;;;;5.84;100.00;100991.22;5029723;28;20224;-75
2022/12/21 06:39:08;;;;;;;;;;;;;;;5.84;100.00;101005.09;5022922;28;19913;-75
2022/12/21 06:41:34;;;;;;;;;;;;;;;5.85;100.00;101013.75;5019295;28;19932;-75
2022/12/21 06:43:59;;;;;;;;;;;;;;;5.85;100.00;101016.34;5024057;28;20212;-75
2022/12/21 06:46:24;;;;;;;;;;;;;;;5.85;100.00;101022.38;5038928;28;20246;-75
2022/12/21 06:48:50;;;;;;;;;;;;;;;5.85;100.00;101034.53;5027806;28;20023;-75
2022/12/21 06:51:16;;;;;;;;;;;;;;;5.86;100.00;101044.91;5037427;28;20255;-75
2022/12/21 06:53:43;;;;;;;;;;;;;;;5.87;100.00;101054.41;5032502;28;19921;-75
2022/12/21 06:56:11;;;;;;;;;;;;;;;5.86;100.00;101055.31;5019737;28;19925;-75
2022/12/21 06:58:36;;;;;;;;;;;;;;;5.87;100.00;101056.16;5023706;28;19909;-75
2022/12/21 07:01:09;;;;;;;;;;;;;;;5.87;100.00;101048.34;5030236;28;19944;-75
2022/12/21 07:03:35;;;;;;;;;;;;;;;5.87;100.00;101044.00;5033027;28;19973;-75
2022/12/21 07:06:01;;;;;;;;;;;;;;;5.88;100.00;101044.88;5022426;28;19914;-75
2022/12/21 07:08:27;;;;;;;;;;;;;;;5.88;100.00;101050.94;5028816;28;19972;-75
2022/12/21 07:10:56;;;;;;;;;;;;;;;5.88;100.00;101053.53;5030720;28;19996;-75
2022/12/21 07:13:21;;;;;;;;;;;;;;;5.89;100.00;101050.03;5036348;28;19916;-75
2022/12/21 07:15:47;;;;;;;;;;;;;;;5.89;100.00;101055.22;5027415;28;19929;-75
2022/12/21 07:18:12;;;;;;;;;;;;;;;5.90;100.00;101058.72;5020680;28;19925;-75
2022/12/21 07:20:37;;;;;;;;;;;;;;;5.90;100.00;101059.56;5028718;28;19925;-75
2022/12/21 07:23:03;;;;;;;;;;;;;;;5.91;100.00;101058.69;5038901;28;19931;-75
2022/12/21 07:25:28;;;;;;;;;;;;;;;5.92;100.00;101056.94;5033557;28;19926;-75
2022/12/21 07:27:55;;;;;;;;;;;;;;;5.92;100.00;101038.75;5018727;28;19925;-75
2022/12/21 07:30:20;;;;;;;;;;;;;;;5.92;100.00;101029.19;5031179;28;19921;-75
2022/12/21 07:32:45;;;;;;;;;;;;;;;5.93;100.00;101032.63;5018578;28;20097;-75
2022/12/21 07:35:11;;;;;;;;;;;;;;;5.94;100.00;101037.81;5019980;28;19922;-74
2022/12/21 07:37:36;;;;;;;;;;;;;;;5.94;100.00;101045.63;5038945;28;20169;-75
2022/12/21 07:40:04;;;;;;;;;;;;;;;5.94;100.00;101040.41;5036623;28;20316;-75
2022/12/21 07:42:30;;;;;;;;;;;;;;;5.95;100.00;101042.19;5018947;28;19921;-75
2022/12/21 07:44:55;;;;;;;;;;;;;;;5.95;100.00;101036.97;5029440;28;19932;-75
2022/12/21 07:47:20;;;;;;;;;;;;;;;5.95;100.00;101034.38;5037032;28;19917;-75
2022/12/21 07:49:46;;;;;;;;;;;;;;;5.97;100.00;101034.34;5030144;28;20032;-75
2022/12/21 07:52:11;;;;;;;;;;;;;;;5.96;100.00;101033.47;5018213;28;19925;-75
2022/12/21 07:54:36;;;;;;;;;;;;;;;5.97;100.00;101042.16;5018264;28;19984;-75
2022/12/21 07:57:01;;;;;;;;;;;;;;;5.98;100.00;101046.44;5029389;28;19979;-75
2022/12/21 07:59:27;;;;;;;;;;;;;;;5.98;100.00;101040.41;5037740;28;19963;-75
2022/12/21 08:01:52;;;;;;;;;;;;;;;5.99;100.00;101047.31;5035012;28;19932;-75
2022/12/21 08:04:17;;;;;;;;;;;;;;;6.00;100.00;101049.03;5033880;28;19962;-75
2022/12/21 08:06:42;;;;;;;;;;;;;;;5.99;100.00;101048.19;5025397;28;19917;-75
2022/12/21 08:09:08;;;;;;;;;;;;;;;5.99;100.00;101049.94;5022984;28;19925;-75
2022/12/21 08:11:33;;;;;;;;;;;;;;;6.00;100.00;101052.47;5028078;28;20271;-75
2022/12/21 08:13:59;;;;;;;;;;;;;;;6.01;100.00;101046.41;5023555;28;19929;-75
2022/12/21 08:16:24;;;;;;;;;;;;;;;6.02;100.00;101055.03;5021451;28;19921;-75
2022/12/21 08:18:49;;;;;;;;;;;;;;;6.03;100.00;101056.78;5023289;28;19921;-75
2022/12/21 08:21:15;;;;;;;;;;;;;;;6.04;100.00;101056.75;5020582;28;19928;-75
2022/12/21 08:23:41;;;;;;;;;;;;;;;6.04;100.00;101055.88;5027460;28;19909;-75
2022/12/21 08:26:08;;;;;;;;;;;;;;;6.04;100.00;101056.75;5016698;28;20113;-75
2022/12/21 08:28:33;;;;;;;;;;;;;;;6.07;100.00;101061.03;5015914;28;19984;-75
2022/12/21 08:31:03;;;;;;;;;;;;;;;6.07;100.00;101058.44;5035386;28;20212;-75
2022/12/21 08:33:28;;;;;;;;;;;;;;;6.07;100.00;101061.03;5036454;28;19940;-75
2022/12/21 08:35:53;;;;;;;;;;;;;;;6.08;100.00;101066.22;5035426;28;20170;-75
2022/12/21 08:38:19;;;;;;;;;;;;;;;6.08;100.00;101070.56;5036499;28;20061;-75
2022/12/21 08:40:44;;;;;;;;;;;;;;;6.08;100.00;101063.59;5033767;28;19931;-75
2022/12/21 08:43:10;;;;;;;;;;;;;;;6.09;100.00;101057.53;5036780;28;19913;-75
2022/12/21 08:45:35;;;;;;;;;;;;;;;6.11;100.00;101055.75;5035602;28;19921;-75
2022/12/21 08:48:00;;;;;;;;;;;;;;;6.10;100.00;101046.22;5034528;28;20073;-73
2022/12/21 08:50:25;;;;;;;;;;;;;;;6.11;100.00;101042.75;5036562;28;20265;-75
2022/12/21 08:52:51;;;;;;;;;;;;;;;6.11;100.00;101042.75;5036069;28;19917;-75
2022/12/21 08:55:16;;;;;;;;;;;;;;;6.13;100.00;101042.69;5028621;28;19975;-75
2022/12/21 08:57:41;;;;;;;;;;;;;;;6.14;100.00;101050.47;5027886;28;19929;-75
2022/12/21 09:00:09;;;;;;;;;;;;;;;6.15;100.00;101052.22;5030642;28;19917;-75
2022/12/21 09:02:35;;;;;;;;;;;;;;;6.16;100.00;101047.84;5025182;28;19917;-75
2022/12/21 09:05:00;;;;;;;;;;;;;;;6.16;100.00;101053.06;5022236;28;20136;-75
2022/12/21 09:07:25;;;;;;;;;;;;;;;6.17;100.00;101049.59;5037049;28;20422;-75
2022/12/21 09:09:50;;;;;;;;;;;;;;;6.18;100.00;101063.44;5033624;28;20112;-75
2022/12/21 09:12:16;;;;;;;;;;;;;;;6.18;100.00;101053.88;5030672;28;19924;-75
2022/12/21 09:14:41;;;;;;;;;;;;;;;6.18;100.00;101046.06;5031619;28;19972;-75
2022/12/21 09:17:06;;;;;;;;;;;;;;;6.18;100.00;101047.81;5030385;28;19997;-75
2022/12/21 09:19:31;;;;;;;;;;;;;;;6.17;100.00;101041.78;5029099;28;20182;-75
2022/12/21 09:21:57;;;;;;;;;;;;;;;6.17;100.00;101044.38;5034098;28;19960;-75
2022/12/21 09:24:22;;;;;;;;;;;;;;;6.17;100.00;101036.56;5033204;28;20005;-74
2022/12/21 09:26:47;;;;;;;;;;;;;;;6.17;100.00;101036.56;5029949;28;20167;-75
2022/12/21 09:29:13;;;;;;;;;;;;;;;6.18;100.00;101029.63;5030207;28;20159;-75
2022/12/21 09:31:38;;;;;;;;;;;;;;;6.18;100.00;101027.88;5027505;28;19936;-75
2022/12/21 09:34:04;;;;;;;;;;;;;;;6.18;100.00;101024.41;5029415;28;19997;-75
2022/12/21 09:36:29;;;;;;;;;;;;;;;6.19;100.00;101021.78;5042080;28;19929;-75
2022/12/21 09:38:55;;;;;;;;;;;;;;;6.20;100.00;101033.03;5049887;28;19925;-75
2022/12/21 09:41:20;;;;;;;;;;;;;;;6.22;100.00;101033.88;5021356;28;20277;-75
2022/12/21 09:44:00;;;;;;;;;;;;;;;6.22;100.00;101039.06;5032172;28;20007;-74
2022/12/21 09:46:26;;;;;;;;;;;;;;;6.22;100.00;101042.56;5027658;28;19925;-75
2022/12/21 09:48:57;;;;;;;;;;;;;;;6.23;100.00;101041.66;5034774;28;19924;-75
2022/12/21 09:51:23;;;;;;;;;;;;;;;6.22;100.00;101042.56;5032408;28;20204;-75
2022/12/21 09:53:57;;;;;;;;;;;;;;;6.22;100.00;101046.88;5033515;28;19909;-75
2022/12/21 09:56:23;;;;;;;;;;;;;;;6.21;100.00;101043.44;5035856;28;19928;-75
2022/12/21 09:58:49;;;;;;;;;;;;;;;6.22;100.00;101039.94;5038927;28;19917;-75
2022/12/21 10:01:27;;;;;;;;;;;;;;;6.22;100.00;101047.75;5044932;28;19916;-75
2022/12/21 10:04:10;;;;;;;;;;;;;;;6.23;100.00;101049.44;5058093;28;19917;-73
2022/12/21 10:06:54;;;;;;;;;;;;;;;6.22;100.00;101039.06;5038341;28;20016;-75
2022/12/21 10:09:19;;;;;;;;;;;;;;;6.23;100.00;101046.84;5036387;28;19936;-75
2022/12/21 10:11:59;;;;;;;;;;;;;;;6.24;100.00;101040.78;5035909;28;19909;-75
2022/12/21 10:14:33;;;;;;;;;;;;;;;6.24;100.00;101045.97;5026209;28;20187;-75
2022/12/21 10:17:17;;;;;;;;;;;;;;;6.24;100.00;101045.97;5025620;28;19925;-75
2022/12/21 10:19:59;;;;;;;;;;;;;;;6.23;100.00;101057.25;5027214;28;19924;-74
2022/12/21 10:22:28;;;;;;;;;;;;;;;6.25;100.00;101052.88;5031781;28;19976;-75
2022/12/21 10:24:58;;;;;;;;;;;;;;;6.26;100.00;101056.34;5031598;28;20075;-75
2022/12/21 10:27:33;;;;;;;;;;;;;;;6.25;100.00;101055.47;5032881;28;19921;-75
2022/12/21 10:29:59;;;;;;;;;;;;;;;6.26;100.00;101052.00;5038666;28;19926;-75
2022/12/21 10:32:27;;;;;;;;;;;;;;;6.26;100.00;101049.41;5033864;28;20213;-75
2022/12/21 10:34:54;;;;;;;;;;;;;;;6.27;100.00;101063.25;5030069;28;20063;-75
2022/12/21 10:37:20;;;;;;;;;;;;;;;6.27;100.00;101051.09;5029138;28;19928;-75
2022/12/21 10:39:46;;;;;;;;;;;;;;;6.29;100.00;101064.06;5026981;28;19929;-75
2022/12/21 10:42:18;;;;;;;;;;;;;;;6.28;100.00;101049.38;5028329;28;19921;-75
2022/12/21 10:44:43;;;;;;;;;;;;;;;6.28;100.00;101049.38;5026932;28;19963;-75
2022/12/21 10:47:26;;;;;;;;;;;;;;;6.28;100.00;101046.78;5028089;28;19952;-75
2022/12/21 10:50:03;;;;;;;;;;;;;;;6.27;100.00;101048.50;5031949;28;19909;-75
2022/12/21 10:52:54;;;;;;;;;;;;;;;6.28;100.00;101049.38;5036140;28;20151;-75
2022/12/21 10:55:20;;;;;;;;;;;;;;;6.29;100.00;101051.06;5032846;28;19928;-75
2022/12/21 10:57:54;;;;;;;;;;;;;;;6.28;100.00;101050.22;5033121;28;19917;-75
2022/12/21 11:00:21;;;;;;;;;;;;;;;6.29;100.00;101051.06;5034280;28;19952;-75
2022/12/21 11:02:47;;;;;;;;;;;;;;;6.28;100.00;101045.03;5036105;28;20151;-75
2022/12/21 11:05:31;;;;;;;;;;;;;;;6.29;100.00;101045.88;5033547;28;19924;-74
2022/12/21 11:08:10;;;;;;;;;;;;;;;6.28;100.00;101047.63;5031225;28;19921;-75
2022/12/21 11:10:35;;;;;;;;;;;;;;;6.27;100.00;101048.50;5035899;28;19912;-75
2022/12/21 11:13:04;;;;;;;;;;;;;;;6.27;100.00;101045.91;5036166;28;19982;-75
2022/12/21 11:15:29;;;;;;;;;;;;;;;6.28;100.00;101038.97;5028071;28;19925;-75
2022/12/21 11:17:54;;;;;;;;;;;;;;;6.28;100.00;101023.38;5037047;28;20258;-75
2022/12/21 11:20:20;;;;;;;;;;;;;;;6.30;100.00;101026.78;5035724;28;19917;-75
2022/12/21 11:22:47;;;;;;;;;;;;;;;6.30;100.00;101035.44;5029432;28;20011;-75
2022/12/21 11:25:14;;;;;;;;;;;;;;;6.31;100.00;101039.78;5034998;28;20186;-75
2022/12/21 11:27:43;;;;;;;;;;;;;;;6.31;100.00;101031.09;5031531;28;19973;-74
2022/12/21 11:30:16;;;;;;;;;;;;;;;6.31;100.00;101038.88;5034959;28;20243;-75
2022/12/21 11:32:44;;;;;;;;;;;;;;;6.32;100.00;101031.06;5039316;28;19921;-75
2022/12/21 11:35:23;;;;;;;;;;;;;;;6.32;100.00;101022.41;5039485;28;19940;-75
2022/12/21 11:37:53;;;;;;;;;;;;;;;6.34;100.00;101023.22;5027966;28;19967;-75
2022/12/21 11:40:20;;;;;;;;;;;;;;;6.35;100.00;101019.75;5033524;28;20214;-75
2022/12/21 11:43:07;;;;;;;;;;;;;;;6.35;100.00;101004.16;5031974;28;19913;-74
2022/12/21 11:46:05;;;;;;;;;;;;;;;6.37;100.00;101007.56;5038394;28;20247;-75
2022/12/21 11:48:30;;;;;;;;;;;;;;;6.38;100.00;100993.66;5003798;28;19925;-75
2022/12/21 11:51:07;;;;;;;;;;;;;;;6.39;100.00;100984.97;5025564;28;19932;-75
2022/12/21 11:53:32;;;;;;;;;;;;;;;6.40;100.00;100991.88;5023194;28;19968;-74
2022/12/21 11:55:58;;;;;;;;;;;;;;;6.41;100.00;100983.19;5023577;28;19925;-75
2022/12/21 11:58:33;;;;;;;;;;;;;;;6.41;100.00;100980.59;5021343;28;19991;-75
2022/12/21 12:01:01;;;;;;;;;;;;;;;6.42;100.00;100987.53;5026405;28;19921;-75
2022/12/21 12:03:27;;;;;;;;;;;;;;;6.43;100.00;100990.97;5027897;28;20210;-75
2022/12/21 12:06:07;;;;;;;;;;;;;;;6.42;100.00;100987.53;5026041;28;19928;-75
2022/12/21 12:08:51;;;;;;;;;;;;;;;6.42;100.00;100977.13;5027951;28;19967;-75
2022/12/21 12:11:22;;;;;;;;;;;;;;;6.42;100.00;100974.53;5030189;28;19952;-75
2022/12/21 12:13:47;;;;;;;;;;;;;;;6.43;100.00;100970.16;5034893;28;20008;-75
2022/12/21 12:16:16;;;;;;;;;;;;;;;6.44;100.00;100969.25;5027000;28;20238;-75
2022/12/21 12:19:00;;;;;;;;;;;;;;;6.43;100.00;100960.59;5044935;28;20101;-75
2022/12/21 12:21:30;;;;;;;;;;;;;;;6.44;100.00;100962.31;5031984;28;19976;-75
2022/12/21 12:23:55;;;;;;;;;;;;;;;6.45;100.00;100961.41;5032452;28;19924;-75
2022/12/21 12:26:45;;;;;;;;;;;;;;;6.46;100.00;100944.94;5032469;28;19921;-75
2022/12/21 12:29:29;;;;;;;;;;;;;;;6.48;100.00;100942.31;5034909;28;19963;-75
2022/12/21 12:31:54;;;;;;;;;;;;;;;6.48;100.00;100935.34;5035242;28;20084;-75
2022/12/21 12:34:20;;;;;;;;;;;;;;;6.49;100.00;100933.59;5034821;28;19929;-75
2022/12/21 12:36:45;;;;;;;;;;;;;;;6.49;100.00;100929.25;5027902;28;19931;-75
2022/12/21 12:39:18;;;;;;;;;;;;;;;6.50;100.00;100924.91;5028387;28;19925;-75
2022/12/21 12:41:46;;;;;;;;;;;;;;;6.51;100.00;100931.81;5023386;28;20234;-75
2022/12/21 12:44:17;;;;;;;;;;;;;;;6.51;100.00;100935.28;5035993;28;19921;-75
2022/12/21 12:46:43;;;;;;;;;;;;;;;6.53;100.00;100935.22;5031356;28;19921;-75
2022/12/21 12:49:11;;;;;;;;;;;;;;;6.53;100.00;100923.09;5028170;28;19971;-75